Time;durP1;ratioP1;P1;durP2;ratioP2;P2;SDS_P1;SDS_P2;PMS_P1;PMS_P2;Temp;Humidity;BMP_temperature;BMP_pressure;BME280_temperature;BME280_humidity;BME280_pressure;Samples;Min_cycle;Max_cycle;Signal;HPM_P1;HPM_P2
2021/05/02 00:02:11;;;;;;;0.40;0.20;;;;;;;;;;5091135;28;20451;-73
2021/05/02 00:04:37;;;;;;;0.40;0.20;;;;;;;;;;5092016;28;20409;-73
2021/05/02 00:07:03;;;;;;;0.40;0.20;;;7.40;99.90;;;;;;5091309;28;20382;-73
2021/05/02 00:09:32;;;;;;;0.40;0.27;;;7.70;99.90;;;;;;5091747;28;20881;-73
2021/05/02 00:11:59;;;;;;;0.40;0.20;;;7.80;99.90;;;;;;5090691;28;20734;-73
2021/05/02 00:14:26;;;;;;;0.52;0.43;;;7.60;99.90;;;;;;5091421;28;20417;-73
2021/05/02 00:16:52;;;;;;;0.40;0.20;;;7.20;99.90;;;;;;5091326;28;20851;-75
2021/05/02 00:19:21;;;;;;;0.40;0.40;;;;;;;;;;5091061;28;20385;-73
2021/05/02 00:21:48;;;;;;;0.40;0.20;;;;;;;;;;5091450;28;20770;-73
2021/05/02 00:24:14;;;;;;;0.40;0.20;;;7.70;99.90;;;;;;5090465;28;20888;-73
2021/05/02 00:26:40;;;;;;;0.40;0.20;;;;;;;;;;5091185;28;20382;-72
2021/05/02 00:29:09;;;;;;;0.40;0.20;;;7.60;99.90;;;;;;5090603;28;20447;-72
2021/05/02 00:31:36;;;;;;;0.40;0.40;;;;;;;;;;5091401;28;20386;-73
2021/05/02 00:34:01;;;;;;;0.40;0.20;;;7.70;99.90;;;;;;5090554;28;20480;-72
2021/05/02 00:36:27;;;;;;;0.40;0.20;;;7.50;99.90;;;;;;5090992;28;20808;-72
2021/05/02 00:38:53;;;;;;;0.40;0.20;;;;;;;;;;5091024;28;20734;-75
2021/05/02 00:41:28;;;;;;;0.40;0.20;;;7.60;99.90;;;;;;5090517;28;20378;-72
2021/05/02 00:43:56;;;;;;;0.40;0.20;;;7.90;99.90;;;;;;5091145;28;20410;-74
2021/05/02 00:46:33;;;;;;;0.40;0.20;;;8.30;99.90;;;;;;5090678;28;20409;-73
2021/05/02 00:49:14;;;;;;;0.40;0.20;;;;;;;;;;5090566;28;20377;-74
2021/05/02 00:51:42;;;;;;;0.40;0.20;;;7.90;99.90;;;;;;5091050;28;20409;-72
2021/05/02 00:54:17;;;;;;;0.40;0.20;;;8.20;99.90;;;;;;5090198;28;20441;-72
2021/05/02 00:57:06;;;;;;;0.40;0.20;;;7.80;99.90;;;;;;5090726;28;20870;-72
2021/05/02 00:59:48;;;;;;;0.40;0.20;;;8.30;99.90;;;;;;5078905;28;20473;-72
2021/05/02 01:02:14;;;;;;;0.40;0.20;;;8.00;99.90;;;;;;5089851;28;20385;-72
2021/05/02 01:04:42;;;;;;;1.50;1.00;;;8.00;99.90;;;;;;5090884;28;20447;-72
2021/05/02 01:07:09;;;;;;;0.40;0.20;;;;;;;;;;5089684;28;20398;-72
2021/05/02 01:09:35;;;;;;;0.40;0.20;;;;;;;;;;5095826;28;20802;-74
2021/05/02 01:12:02;;;;;;;0.40;0.20;;;;;;;;;;5111098;28;20357;-72
2021/05/02 01:14:30;;;;;;;0.40;0.20;;;;;;;;;;5111634;28;20388;-72
2021/05/02 01:16:57;;;;;;;0.40;0.20;;;;;;;;;;5110792;28;20369;-75
2021/05/02 01:19:25;;;;;;;0.40;0.20;;;;;;;;;;5110510;28;20364;-72
2021/05/02 01:21:51;;;;;;;0.40;0.20;;;7.90;99.90;;;;;;5110790;28;20373;-72
2021/05/02 01:24:17;;;;;;;0.40;0.20;;;7.60;99.90;;;;;;5091994;28;20895;-72
2021/05/02 01:26:45;;;;;;;0.40;0.20;;;8.00;99.90;;;;;;5111248;28;20375;-71
2021/05/02 01:29:11;;;;;;;0.40;0.20;;;;;;;;;;5109847;28;20444;-72
2021/05/02 01:31:37;;;;;;;0.40;0.20;;;7.90;99.90;;;;;;5111294;28;20368;-72
2021/05/02 01:34:03;;;;;;;0.40;0.20;;;7.50;99.90;;;;;;5109935;28;20436;-72
2021/05/02 01:36:29;;;;;;;0.40;0.20;;;7.50;99.90;;;;;;5110814;28;20737;-72
2021/05/02 01:38:57;;;;;;;0.60;0.60;;;7.40;99.90;;;;;;5110535;28;20407;-72
2021/05/02 01:41:25;;;;;;;0.40;0.20;;;;;;;;;;5110055;28;20412;-71
2021/05/02 01:43:52;;;;;;;0.40;0.20;;;;;;;;;;5110690;28;20372;-71
2021/05/02 01:46:25;;;;;;;0.40;0.20;;;7.80;99.90;;;;;;5110356;28;20483;-71
2021/05/02 01:48:51;;;;;;;0.40;0.20;;;;;;;;;;5110777;28;20717;-72
2021/05/02 01:51:19;;;;;;;0.60;0.50;;;7.60;99.90;;;;;;5109931;28;20425;-71
2021/05/02 01:53:45;;;;;;;0.40;0.20;;;7.40;99.90;;;;;;5110010;28;20472;-72
2021/05/02 01:56:13;;;;;;;0.40;0.20;;;;;;;;;;5109956;28;20444;-72
2021/05/02 01:58:40;;;;;;;0.40;0.20;;;;;;;;;;5092316;28;20400;-72
2021/05/02 02:01:07;;;;;;;0.40;0.20;;;;;;;;;;5108643;28;20392;-72
2021/05/02 02:03:34;;;;;;;0.40;0.20;;;;;;;;;;5090303;28;20439;-71
2021/05/02 02:06:01;;;;;;;0.40;0.20;;;;;;;;;;5089783;28;20418;-73
2021/05/02 02:08:27;;;;;;;0.40;0.20;;;;;;;;;;5089669;28;20370;-72
2021/05/02 02:10:53;;;;;;;0.40;0.20;;;;;;;;;;5089953;28;20704;-72
2021/05/02 02:13:20;;;;;;;0.40;0.20;;;;;;;;;;5088903;28;20991;-72
2021/05/02 02:15:47;;;;;;;0.40;0.20;;;7.40;99.90;;;;;;5089688;28;20465;-72
2021/05/02 02:18:14;;;;;;;0.40;0.20;;;;;;;;;;5088655;28;20825;-73
2021/05/02 02:20:43;;;;;;;0.40;0.20;;;;;;;;;;5091336;28;20370;-72
2021/05/02 02:23:17;;;;;;;0.40;0.20;;;7.40;99.90;;;;;;5092955;28;20381;-73
2021/05/02 02:25:44;;;;;;;0.40;0.20;;;7.40;99.90;;;;;;5093707;28;20880;-72
2021/05/02 02:28:16;;;;;;;0.40;0.20;;;7.30;99.90;;;;;;5092951;28;20366;-73
2021/05/02 02:30:44;;;;;;;0.40;0.20;;;;;;;;;;5075628;28;20950;-72
2021/05/02 02:33:11;;;;;;;0.40;0.20;;;;;;;;;;5092694;28;20374;-72
2021/05/02 02:35:46;;;;;;;0.60;0.40;;;7.30;99.90;;;;;;5093481;28;20388;-72
2021/05/02 02:38:15;;;;;;;0.40;0.20;;;7.70;99.90;;;;;;5092760;28;20386;-73
2021/05/02 02:40:41;;;;;;;0.40;0.20;;;7.70;99.90;;;;;;5093443;28;20431;-72
2021/05/02 02:43:10;;;;;;;0.40;0.20;;;7.30;99.90;;;;;;5092760;28;20374;-72
2021/05/02 02:45:38;;;;;;;0.40;0.20;;;;;;;;;;5092944;28;20436;-72
2021/05/02 02:48:05;;;;;;;0.40;0.20;;;;;;;;;;5074535;28;20374;-74
2021/05/02 02:50:32;;;;;;;0.40;0.40;;;;;;;;;;5092654;28;20374;-72
2021/05/02 02:53:02;;;;;;;0.40;0.25;;;;;;;;;;5093187;28;20362;-72
2021/05/02 02:55:29;;;;;;;0.40;0.30;;;;;;;;;;5093186;28;20366;-71
2021/05/02 02:57:55;;;;;;;0.40;0.20;;;;;;;;;;5093108;28;20472;-72
2021/05/02 03:00:22;;;;;;;0.40;0.20;;;7.30;99.90;;;;;;5074143;28;20371;-72
2021/05/02 03:02:51;;;;;;;0.40;0.20;;;;;;;;;;5092726;28;20401;-72
2021/05/02 03:05:19;;;;;;;0.40;0.20;;;;;;;;;;5092242;28;20435;-72
2021/05/02 03:07:48;;;;;;;0.40;0.20;;;;;;;;;;5112033;28;20389;-72
2021/05/02 03:10:15;;;;;;;0.40;0.20;;;;;;;;;;5112608;28;20365;-72
2021/05/02 03:12:42;;;;;;;0.40;0.20;;;7.20;99.90;;;;;;5112914;28;20878;-72
2021/05/02 03:15:08;;;;;;;0.40;0.20;;;;;;;;;;5112436;28;20807;-73
2021/05/02 03:17:36;;;;;;;0.40;0.20;;;7.40;99.90;;;;;;5113130;28;20509;-72
2021/05/02 03:20:06;;;;;;;0.40;0.20;;;;;;;;;;5113193;28;20827;-72
2021/05/02 03:22:36;;;;;;;0.40;0.20;;;;;;;;;;5113285;28;20380;-73
2021/05/02 03:25:04;;;;;;;0.40;0.20;;;;;;;;;;5113534;28;20440;-72
2021/05/02 03:28:02;;;;;;;0.40;0.30;;;;;;;;;;5112716;28;20369;-72
2021/05/02 03:30:29;;;;;;;0.40;0.20;;;;;;;;;;5056381;28;20420;-72
2021/05/02 03:32:57;;;;;;;0.40;0.20;;;7.20;99.90;;;;;;5111465;28;20759;-72
2021/05/02 03:35:27;;;;;;;0.40;0.20;;;;;;;;;;5111932;28;20478;-72
2021/05/02 03:38:23;;;;;;;0.40;0.20;;;7.30;99.90;;;;;;5113109;28;20372;-72
2021/05/02 03:40:51;;;;;;;0.40;0.20;;;7.30;99.90;;;;;;5112791;28;20395;-71
2021/05/02 03:43:17;;;;;;;0.40;0.20;;;7.30;99.90;;;;;;5111996;28;20479;-72
2021/05/02 03:45:43;;;;;;;0.40;0.30;;;;;;;;;;5084662;28;20472;-73
2021/05/02 03:48:09;;;;;;;0.40;0.40;;;;;;;;;;5078130;28;20375;-73
2021/05/02 03:50:36;;;;;;;0.40;0.20;;;;;;;;;;5078174;28;20385;-73
2021/05/02 03:53:03;;;;;;;0.40;0.30;;;7.40;99.90;;;;;;5059138;28;20891;-73
2021/05/02 03:55:29;;;;;;;0.40;0.20;;;;;;;;;;5077426;28;20493;-73
2021/05/02 03:57:56;;;;;;;0.40;0.20;;;;;;;;;;5077880;28;20770;-72
2021/05/02 04:00:22;;;;;;;0.40;0.20;;;7.70;99.90;;;;;;5059427;28;21149;-73
2021/05/02 04:02:48;;;;;;;0.50;0.50;;;;;;;;;;5076837;28;20390;-72
2021/05/02 04:05:14;;;;;;;0.40;0.20;;;;;;;;;;5077632;28;20393;-72
2021/05/02 04:07:40;;;;;;;0.40;0.20;;;7.20;99.90;;;;;;5078333;28;21231;-74
2021/05/02 04:10:06;;;;;;;0.40;0.20;;;;;;;;;;5078354;28;20489;-73
2021/05/02 04:12:32;;;;;;;0.40;0.20;;;;;;;;;;5075877;28;20386;-73
2021/05/02 04:14:58;;;;;;;0.40;0.20;;;;;;;;;;5077260;28;20413;-73
2021/05/02 04:17:24;;;;;;;0.40;0.20;;;;;;;;;;5077154;28;20382;-72
2021/05/02 04:19:52;;;;;;;0.40;0.20;;;;;;;;;;5078169;28;20482;-72
2021/05/02 04:22:18;;;;;;;0.40;0.20;;;;;;;;;;5057640;28;20386;-72
2021/05/02 04:24:46;;;;;;;0.40;0.20;;;;;;;;;;5059531;28;20409;-72
2021/05/02 04:27:12;;;;;;;0.40;0.20;;;;;;;;;;5077510;28;20386;-73
2021/05/02 04:29:39;;;;;;;0.40;0.20;;;;;;;;;;5077674;28;20453;-73
2021/05/02 04:32:05;;;;;;;0.40;0.20;;;;;;;;;;5075917;28;20803;-72
2021/05/02 04:34:31;;;;;;;0.40;0.20;;;;;;;;;;5077179;28;20404;-72
2021/05/02 04:36:58;;;;;;;0.40;0.20;;;;;;;;;;5077678;28;20430;-72
2021/05/02 04:39:24;;;;;;;0.40;0.20;;;;;;;;;;5077656;28;20408;-72
2021/05/02 04:41:51;;;;;;;0.40;0.20;;;;;;;;;;5076504;28;20401;-73
2021/05/02 04:44:17;;;;;;;0.40;0.20;;;;;;;;;;5076574;28;20435;-73
2021/05/02 04:46:43;;;;;;;0.40;0.35;;;7.10;99.90;;;;;;5089774;28;20402;-72
2021/05/02 04:49:09;;;;;;;0.40;0.20;;;;;;;;;;5072633;28;20781;-73
2021/05/02 04:51:36;;;;;;;0.50;0.45;;;;;;;;;;5090025;28;20374;-72
2021/05/02 04:54:02;;;;;;;0.40;0.20;;;;;;;;;;5089783;28;20419;-72
2021/05/02 04:56:28;;;;;;;0.40;0.20;;;;;;;;;;5089300;28;20374;-72
2021/05/02 04:58:54;;;;;;;0.50;0.40;;;;;;;;;;5090068;28;20445;-72
2021/05/02 05:01:19;;;;;;;0.40;0.20;;;7.30;99.90;;;;;;5088856;28;20881;-72
2021/05/02 05:03:46;;;;;;;0.40;0.20;;;;;;;;;;5089979;28;20414;-72
2021/05/02 05:06:12;;;;;;;0.40;0.20;;;;;;;;;;5089860;28;20381;-73
2021/05/02 05:08:41;;;;;;;0.40;0.20;;;6.90;99.90;;;;;;5071668;28;20473;-72
2021/05/02 05:11:08;;;;;;;0.40;0.20;;;;;;;;;;5071634;28;20378;-72
2021/05/02 05:13:34;;;;;;;0.40;0.20;;;;;;;;;;5088589;28;20952;-72
2021/05/02 05:16:00;;;;;;;0.40;0.20;;;;;;;;;;5089642;28;20381;-72
2021/05/02 05:18:27;;;;;;;0.40;0.20;;;;;;;;;;5089409;28;20370;-72
2021/05/02 05:20:53;;;;;;;0.40;0.20;;;;;;;;;;5089882;28;20408;-72
2021/05/02 05:23:20;;;;;;;0.40;0.20;;;;;;;;;;5089210;28;20459;-72
2021/05/02 05:25:46;;;;;;;0.40;0.20;;;7.40;99.90;;;;;;5090022;28;20370;-72
2021/05/02 05:28:12;;;;;;;0.40;0.20;;;;;;;;;;5089934;28;20374;-73
2021/05/02 05:30:37;;;;;;;0.40;0.20;;;7.00;99.90;;;;;;5089486;28;20416;-72
2021/05/02 05:33:06;;;;;;;0.40;0.20;;;6.90;99.90;;;;;;5090167;28;20378;-72
2021/05/02 05:35:32;;;;;;;0.40;0.40;;;7.30;99.90;;;;;;5089327;28;21231;-72
2021/05/02 05:37:59;;;;;;;0.40;0.27;;;7.20;99.90;;;;;;5090072;28;20457;-72
2021/05/02 05:40:26;;;;;;;0.40;0.20;;;7.30;99.90;;;;;;5089309;28;20401;-72
2021/05/02 05:42:52;;;;;;;0.40;0.20;;;7.30;99.90;;;;;;5089644;28;20382;-72
2021/05/02 05:45:19;;;;;;;0.40;0.20;;;;;;;;;;5088749;28;20406;-72
2021/05/02 05:47:46;;;;;;;0.40;0.20;;;7.50;99.90;;;;;;5090002;28;20435;-72
2021/05/02 05:50:14;;;;;;;0.90;0.70;;;7.20;99.90;;;;;;5089453;28;20393;-72
2021/05/02 05:52:40;;;;;;;0.40;0.20;;;;;;;;;;5089681;28;20405;-71
2021/05/02 05:55:07;;;;;;;0.40;0.20;;;;;;;;;;5089979;28;20428;-72
2021/05/02 05:57:33;;;;;;;0.40;0.30;;;;;;;;;;5093065;28;20562;-72
2021/05/02 05:59:58;;;;;;;0.40;0.20;;;7.40;99.90;;;;;;5094050;28;20370;-72
2021/05/02 06:02:24;;;;;;;0.40;0.20;;;7.60;99.90;;;;;;5093185;28;20389;-72
2021/05/02 06:04:50;;;;;;;0.40;0.40;;;;;;;;;;5094614;28;20401;-72
2021/05/02 06:07:16;;;;;;;0.40;0.20;;;;;;;;;;5093613;28;20742;-73
2021/05/02 06:09:42;;;;;;;0.40;0.20;;;7.70;99.90;;;;;;5094458;28;20378;-71
2021/05/02 06:12:08;;;;;;;0.40;0.20;;;7.80;99.90;;;;;;5094367;28;20385;-71
2021/05/02 06:14:34;;;;;;;0.40;0.20;;;;;;;;;;5093165;28;20428;-71
2021/05/02 06:17:00;;;;;;;0.40;0.20;;;;;;;;;;5094242;28;20842;-71
2021/05/02 06:19:28;;;;;;;0.40;0.20;;;;;;;;;;5093469;28;20366;-71
2021/05/02 06:21:54;;;;;;;0.40;0.20;;;;;;;;;;5094012;28;20419;-71
2021/05/02 06:24:20;;;;;;;0.40;0.20;;;;;;;;;;5093100;28;20769;-71
2021/05/02 06:26:45;;;;;;;0.40;0.30;;;8.10;99.90;;;;;;5093678;28;20362;-71
2021/05/02 06:29:11;;;;;;;0.40;0.20;;;8.00;99.90;;;;;;5093282;28;20386;-71
2021/05/02 06:31:40;;;;;;;0.40;0.40;;;;;;;;;;5075198;28;20385;-72
2021/05/02 06:34:06;;;;;;;0.40;0.20;;;;;;;;;;5093127;28;20966;-71
2021/05/02 06:36:31;;;;;;;0.40;0.20;;;8.20;99.90;;;;;;5093165;28;20393;-71
2021/05/02 06:38:57;;;;;;;0.40;0.20;;;;;;;;;;5093816;28;20378;-71
2021/05/02 06:41:23;;;;;;;0.40;0.20;;;;;;;;;;5092579;28;20817;-71
2021/05/02 06:43:49;;;;;;;0.40;0.20;;;8.40;99.90;;;;;;5093762;28;20862;-71
2021/05/02 06:46:27;;;;;;;0.40;0.20;;;8.40;99.90;;;;;;5093326;28;20401;-71
2021/05/02 06:49:02;;;;;;;0.40;0.30;;;8.20;99.90;;;;;;5093964;28;20374;-71
2021/05/02 06:51:28;;;;;;;0.40;0.20;;;;;;;;;;5093181;28;20370;-72
2021/05/02 06:53:55;;;;;;;0.40;0.20;;;8.00;99.90;;;;;;5113939;28;20488;-72
2021/05/02 06:56:22;;;;;;;0.40;0.20;;;;;;;;;;5113470;28;20459;-72
2021/05/02 06:58:48;;;;;;;0.40;0.20;;;;;;;;;;5113910;28;20520;-72
2021/05/02 07:01:14;;;;;;;0.40;0.20;;;8.50;99.90;;;;;;5114080;28;20373;-72
2021/05/02 07:03:40;;;;;;;0.40;0.20;;;;;;;;;;5099345;28;20432;-72
2021/05/02 07:06:06;;;;;;;0.40;0.20;;;;;;;;;;5098369;28;20396;-72
2021/05/02 07:08:32;;;;;;;0.40;0.20;;;;;;;;;;5109070;28;20710;-72
2021/05/02 07:10:59;;;;;;;0.40;0.20;;;;;;;;;;5104651;28;20432;-71
2021/05/02 07:13:27;;;;;;;0.40;0.20;;;;;;;;;;5100695;28;20412;-72
2021/05/02 07:15:53;;;;;;;0.40;0.20;;;;;;;;;;5097051;28;20401;-72
2021/05/02 07:18:19;;;;;;;0.40;0.20;;;;;;;;;;5095397;28;20370;-73
2021/05/02 07:20:47;;;;;;;0.43;0.28;;;;;;;;;;5104819;28;20364;-71
2021/05/02 07:23:36;;;;;;;0.40;0.20;;;8.50;99.90;;;;;;5113322;28;20369;-71
2021/05/02 07:26:02;;;;;;;0.40;0.20;;;;;;;;;;5093028;28;20758;-72
2021/05/02 07:28:27;;;;;;;0.40;0.20;;;8.50;99.90;;;;;;5103004;28;20890;-72
2021/05/02 07:30:53;;;;;;;0.40;0.20;;;;;;;;;;5101912;28;20379;-72
2021/05/02 07:33:22;;;;;;;1.50;0.90;;;;;;;;;;5092287;28;20382;-73
2021/05/02 07:35:49;;;;;;;0.40;0.20;;;9.10;99.90;;;;;;5092357;28;20489;-72
2021/05/02 07:38:15;;;;;;;0.40;0.20;;;8.80;99.90;;;;;;5093298;28;20473;-71
2021/05/02 07:40:41;;;;;;;0.40;0.30;;;9.30;99.90;;;;;;5091724;28;20382;-72
2021/05/02 07:43:07;;;;;;;0.40;0.20;;;;;;;;;;5092742;28;20397;-72
2021/05/02 07:45:33;;;;;;;0.40;0.20;;;;;;;;;;5091525;28;20421;-71
2021/05/02 07:47:59;;;;;;;0.40;0.20;;;;;;;;;;5092601;28;20374;-71
2021/05/02 07:50:25;;;;;;;0.40;0.20;;;9.50;99.90;;;;;;5090621;28;20457;-72
2021/05/02 07:52:51;;;;;;;0.40;0.20;;;9.60;99.90;;;;;;5091960;28;20378;-71
2021/05/02 07:55:17;;;;;;;0.40;0.20;;;;;;;;;;5091789;28;20404;-71
2021/05/02 07:57:42;;;;;;;0.60;0.60;;;9.40;99.90;;;;;;5091282;28;20380;-71
2021/05/02 08:00:08;;;;;;;0.60;0.60;;;9.30;99.90;;;;;;5091721;28;20387;-72
2021/05/02 08:02:34;;;;;;;0.40;0.20;;;;;;;;;;5090205;28;20897;-72
2021/05/02 08:05:01;;;;;;;0.40;0.20;;;;;;;;;;5092479;28;20362;-72
2021/05/02 08:07:26;;;;;;;0.40;0.20;;;9.60;99.90;;;;;;5091814;28;20366;-72
2021/05/02 08:09:52;;;;;;;0.40;0.20;;;9.50;99.90;;;;;;5092614;28;20749;-71
2021/05/02 08:12:18;;;;;;;0.40;0.20;;;;;;;;;;5092243;28;20453;-72
2021/05/02 08:14:44;;;;;;;0.40;0.20;;;;;;;;;;5091584;28;20437;-72
2021/05/02 08:17:11;;;;;;;0.40;0.20;;;;;;;;;;5092249;28;20382;-72
2021/05/02 08:19:36;;;;;;;0.40;0.20;;;9.90;99.90;;;;;;5108325;28;20436;-72
2021/05/02 08:22:03;;;;;;;0.40;0.20;;;10.10;99.90;;;;;;5094103;28;20427;-72
2021/05/02 08:24:30;;;;;;;0.43;0.30;;;9.90;99.90;;;;;;5111639;28;20388;-72
2021/05/02 08:26:56;;;;;;;0.40;0.20;;;;;;;;;;5112451;28;20373;-71
2021/05/02 08:29:22;;;;;;;0.40;0.20;;;10.00;99.90;;;;;;5111851;28;20376;-72
2021/05/02 08:31:48;;;;;;;0.40;0.20;;;;;;;;;;5112432;28;20775;-72
2021/05/02 08:34:14;;;;;;;0.40;0.20;;;;;;;;;;5112139;28;20963;-71
2021/05/02 08:36:40;;;;;;;0.40;0.20;;;10.10;99.90;;;;;;5111514;28;20373;-72
2021/05/02 08:39:06;;;;;;;0.40;0.20;;;10.30;99.90;;;;;;5112498;28;20376;-72
2021/05/02 08:41:35;;;;;;;0.40;0.20;;;;;;;;;;5111846;28;20425;-72
2021/05/02 08:44:02;;;;;;;0.40;0.20;;;;;;;;;;5112024;28;20368;-72
2021/05/02 08:46:29;;;;;;;0.40;0.20;;;;;;;;;;5110929;28;20380;-73
2021/05/02 08:48:55;;;;;;;0.40;0.20;;;;;;;;;;5111934;28;20377;-71
2021/05/02 08:51:22;;;;;;;3.00;0.60;;;;;;;;;;5112161;28;20712;-72
2021/05/02 08:53:47;;;;;;;0.40;0.20;;;10.80;99.90;;;;;;5112245;28;20396;-73
2021/05/02 08:56:13;;;;;;;0.40;0.20;;;;;;;;;;5102309;28;20785;-72
2021/05/02 08:58:39;;;;;;;1.10;0.70;;;10.00;99.90;;;;;;5090105;28;20419;-72
2021/05/02 09:01:05;;;;;;;0.40;0.20;;;;;;;;;;5091103;28;20382;-72
2021/05/02 09:03:40;;;;;;;0.40;0.20;;;;;;;;;;5090867;28;20458;-72
2021/05/02 09:06:14;;;;;;;0.40;0.20;;;10.60;99.90;;;;;;5089120;28;20374;-73
2021/05/02 09:08:40;;;;;;;0.40;0.20;;;;;;;;;;5085534;28;20723;-73
2021/05/02 09:11:06;;;;;;;0.40;0.20;;;10.20;99.90;;;;;;5091358;28;20354;-72
2021/05/02 09:13:33;;;;;;;0.40;0.20;;;10.80;99.90;;;;;;5090451;28;20728;-73
2021/05/02 09:16:04;;;;;;;0.40;0.20;;;11.30;99.90;;;;;;5091220;28;20382;-73
2021/05/02 09:18:41;;;;;;;0.40;0.20;;;10.80;99.90;;;;;;5090880;28;20378;-73
2021/05/02 09:21:08;;;;;;;0.40;0.20;;;;;;;;;;5091489;28;20389;-73
2021/05/02 09:23:42;;;;;;;0.40;0.20;;;;;;;;;;5090574;28;20439;-72
2021/05/02 09:26:17;;;;;;;0.40;0.20;;;;;;;;;;5091202;28;20362;-73
2021/05/02 09:28:46;;;;;;;0.40;0.20;;;;;;;;;;5090609;28;20366;-72
2021/05/02 09:31:17;;;;;;;0.40;0.20;;;;;;;;;;5089599;28;20388;-73
2021/05/02 09:33:43;;;;;;;0.40;0.20;;;;;;;;;;5072505;28;20404;-72
2021/05/02 09:36:11;;;;;;;0.40;0.20;;;10.50;99.90;;;;;;5091215;28;20456;-72
2021/05/02 09:38:38;;;;;;;0.40;0.20;;;10.50;99.90;;;;;;5072040;28;20386;-72
2021/05/02 09:41:04;;;;;;;0.40;0.20;;;;;;;;;;5090378;28;20461;-75
2021/05/02 09:43:31;;;;;;;0.40;0.20;;;;;;;;;;5089699;28;20370;-71
2021/05/02 09:46:23;;;;;;;0.40;0.20;;;;;;;;;;5068727;28;20487;-72
2021/05/02 09:48:49;;;;;;;0.40;0.20;;;;;;;;;;5069070;28;20384;-72
2021/05/02 09:51:15;;;;;;;0.40;0.20;;;11.20;99.90;;;;;;5070584;28;20394;-71
2021/05/02 09:53:41;;;;;;;0.40;0.20;;;;;;;;;;5069772;28;20740;-72
2021/05/02 09:56:16;;;;;;;0.40;0.20;;;;;;;;;;5070272;28;20380;-70
2021/05/02 09:58:42;;;;;;;0.40;0.20;;;11.90;99.90;;;;;;5068261;28;20388;-70
2021/05/02 10:01:16;;;;;;;0.40;0.20;;;;;;;;;;5067266;28;20430;-70
2021/05/02 10:03:51;;;;;;;0.40;0.20;;;11.50;99.90;;;;;;5070500;28;20713;-71
2021/05/02 10:06:29;;;;;;;0.40;0.20;;;11.70;99.90;;;;;;5070415;28;20483;-71
2021/05/02 10:08:55;;;;;;;0.40;0.20;;;11.40;99.90;;;;;;5068451;28;20387;-70
2021/05/02 10:11:24;;;;;;;0.40;0.20;;;;;;;;;;5069961;28;20383;-71
2021/05/02 10:13:51;;;;;;;0.40;0.20;;;;;;;;;;5069056;28;20555;-69
2021/05/02 10:16:17;;;;;;;0.40;0.20;;;;;;;;;;5069124;28;20915;-72
2021/05/02 10:18:43;;;;;;;0.40;0.20;;;;;;;;;;5069366;28;20379;-71
2021/05/02 10:21:10;;;;;;;0.40;0.20;;;;;;;;;;5068127;28;20375;-70
2021/05/02 10:23:36;;;;;;;0.40;0.20;;;11.50;99.90;;;;;;5058062;28;20895;-71
2021/05/02 10:26:05;;;;;;;0.40;0.20;;;11.50;99.90;;;;;;5060123;28;20388;-71
2021/05/02 10:28:36;;;;;;;0.40;0.20;;;11.50;99.90;;;;;;5057670;28;20880;-70
2021/05/02 10:31:04;;;;;;;0.40;0.20;;;;;;;;;;5052557;28;20403;-72
2021/05/02 10:33:31;;;;;;;0.40;0.30;;;11.30;99.90;;;;;;5052031;28;20384;-72
2021/05/02 10:36:04;;;;;;;0.40;0.20;;;;;;;;;;5055279;28;20843;-75
2021/05/02 10:38:46;;;;;;;0.40;0.20;;;;;;;;;;5056101;28;20895;-73
2021/05/02 10:41:32;;;;;;;0.40;0.20;;;;;;;;;;5054576;28;20803;-76
2021/05/02 10:44:07;;;;;;;0.40;0.20;;;;;;;;;;5056792;28;20386;-72
2021/05/02 10:46:42;;;;;;;0.40;0.20;;;11.90;99.90;;;;;;5076827;28;21514;-75
2021/05/02 10:49:31;;;;;;;0.40;0.20;;;12.40;99.90;;;;;;5078937;28;20390;-73
2021/05/02 10:52:30;;;;;;;0.40;0.25;;;11.60;99.90;;;;;;5078029;28;20406;-72
2021/05/02 10:55:06;;;;;;;0.40;0.20;;;;;;;;;;5078700;28;20446;-76
2021/05/02 10:57:36;;;;;;;0.40;0.20;;;;;;;;;;5079351;28;20459;-74
2021/05/02 11:00:13;;;;;;;0.40;0.20;;;11.40;99.90;;;;;;5075831;28;20427;-74
2021/05/02 11:02:47;;;;;;;0.40;0.20;;;11.50;99.90;;;;;;5073219;28;20459;-74
2021/05/02 11:05:14;;;;;;;0.40;0.20;;;;;;;;;;5079100;28;20394;-73
2021/05/02 11:07:41;;;;;;;0.40;0.20;;;;;;;;;;5079212;28;20378;-76
2021/05/02 11:10:08;;;;;;;0.40;0.20;;;;;;;;;;5079050;28;20370;-73
2021/05/02 11:12:35;;;;;;;0.40;0.20;;;12.20;99.90;;;;;;5075783;28;20389;-75
2021/05/02 11:15:01;;;;;;;0.40;0.20;;;;;;;;;;5078112;28;20412;-74
2021/05/02 11:17:28;;;;;;;0.40;0.20;;;;;;;;;;5078188;28;21076;-73
2021/05/02 11:19:54;;;;;;;0.40;0.20;;;;;;;;;;5078637;28;20379;-73
2021/05/02 11:22:21;;;;;;;0.40;0.20;;;;;;;;;;5077554;28;20786;-77
2021/05/02 11:24:51;;;;;;;0.40;0.20;;;10.80;99.90;;;;;;5078592;28;20416;-74
2021/05/02 11:27:24;;;;;;;0.40;0.20;;;;;;;;;;5078075;28;20428;-72
2021/05/02 11:32:31;;;;;;;0.40;0.20;;;;;;;;;;5077008;28;20923;-74
2021/05/02 11:35:07;;;;;;;0.40;0.20;;;;;;;;;;5078145;28;20394;-74
2021/05/02 11:37:53;;;;;;;0.40;0.20;;;;;;;;;;5078717;28;20382;-77
2021/05/02 11:40:19;;;;;;;0.40;0.20;;;;;;;;;;5079513;28;20390;-75
2021/05/02 11:42:59;;;;;;;0.40;0.20;;;8.70;99.90;;;;;;5075946;28;20735;-79
2021/05/02 11:45:26;;;;;;;0.40;0.20;;;8.50;99.90;;;;;;5060953;28;20422;-73
2021/05/02 11:47:52;;;;;;;0.40;0.20;;;;;;;;;;5060442;28;20706;-76
2021/05/02 11:50:19;;;;;;;0.40;0.20;;;;;;;;;;5078375;28;20401;-73
2021/05/02 11:52:45;;;;;;;0.40;0.20;;;;;;;;;;5056952;28;20378;-74
2021/05/02 11:55:29;;;;;;;0.40;0.20;;;9.00;99.90;;;;;;5078658;28;20406;-74
2021/05/02 11:58:03;;;;;;;0.40;0.20;;;8.30;99.90;;;;;;5060432;28;20405;-74
2021/05/02 12:00:38;;;;;;;0.40;0.20;;;8.60;99.90;;;;;;5060914;28;20387;-76
2021/05/02 12:03:06;;;;;;;0.40;0.20;;;7.70;99.90;;;;;;5077704;28;20449;-73
2021/05/02 12:05:32;;;;;;;0.40;0.20;;;8.80;99.90;;;;;;5080144;28;20439;-73
2021/05/02 12:08:08;;;;;;;0.40;0.20;;;;;;;;;;5060819;28;20487;-76
2021/05/02 12:10:34;;;;;;;0.40;0.20;;;;;;;;;;5079388;28;20823;-74
2021/05/02 12:13:00;;;;;;;0.40;0.20;;;9.20;99.90;;;;;;5076545;28;20517;-73
2021/05/02 12:15:26;;;;;;;0.40;0.23;;;;;;;;;;5078593;28;20398;-73
2021/05/02 12:17:52;;;;;;;0.40;0.30;;;;;;;;;;5077208;28;20392;-75
2021/05/02 12:20:22;;;;;;;0.40;0.30;;;;;;;;;;5077573;28;20864;-74
2021/05/02 12:22:49;;;;;;;0.40;0.20;;;;;;;;;;5075900;28;20381;-75
2021/05/02 12:25:15;;;;;;;0.40;0.20;;;;;;;;;;5076564;28;20408;-75
2021/05/02 12:27:53;;;;;;;0.40;0.20;;;;;;;;;;5076637;28;20447;-74
2021/05/02 12:30:19;;;;;;;0.40;0.20;;;9.70;99.90;;;;;;5078493;28;20374;-73
2021/05/02 12:32:45;;;;;;;0.40;0.20;;;10.10;99.90;;;;;;5076067;28;20425;-74
2021/05/02 12:35:11;;;;;;;0.40;0.20;;;;;;;;;;5078307;28;20908;-75
2021/05/02 12:37:37;;;;;;;0.40;0.20;;;;;;;;;;5078435;28;20377;-73
2021/05/02 12:40:06;;;;;;;0.40;0.20;;;;;;;;;;5060023;28;20382;-73
2021/05/02 12:42:37;;;;;;;0.40;0.30;;;10.10;99.90;;;;;;5077139;28;20378;-73
2021/05/02 12:45:05;;;;;;;0.40;0.20;;;10.40;99.90;;;;;;5077198;28;20497;-74
2021/05/02 12:47:38;;;;;;;0.40;0.20;;;10.60;99.90;;;;;;5077968;28;20425;-74
2021/05/02 12:50:06;;;;;;;0.40;0.20;;;10.40;99.90;;;;;;5078169;28;20473;-73
2021/05/02 12:52:36;;;;;;;0.40;0.20;;;;;;;;;;5074259;28;20798;-74
2021/05/02 12:55:17;;;;;;;0.40;0.20;;;;;;;;;;5058514;28;20409;-73
2021/05/02 12:57:48;;;;;;;0.40;0.20;;;;;;;;;;5075668;28;20869;-75
2021/05/02 13:00:16;;;;;;;0.40;0.20;;;;;;;;;;5075980;28;20463;-73
2021/05/02 13:02:46;;;;;;;0.40;0.20;;;;;;;;;;5075780;28;20445;-73
2021/05/02 13:05:14;;;;;;;0.40;0.20;;;;;;;;;;5077229;28;20397;-75
2021/05/02 13:07:40;;;;;;;0.80;0.50;;;;;;;;;;5084621;28;20383;-75
2021/05/02 13:10:27;;;;;;;0.40;0.20;;;12.50;99.90;;;;;;5089402;28;20837;-72
2021/05/02 13:13:02;;;;;;;0.40;0.20;;;12.80;99.90;;;;;;5089460;28;20382;-72
2021/05/02 13:15:40;;;;;;;0.40;0.20;;;12.10;99.90;;;;;;5090235;28;20443;-73
2021/05/02 13:18:15;;;;;;;0.40;0.20;;;11.90;99.90;;;;;;5090491;28;20370;-73
2021/05/02 13:20:53;;;;;;;0.40;0.20;;;11.60;99.90;;;;;;5089668;28;20374;-72
2021/05/02 13:23:38;;;;;;;0.40;0.20;;;;;;;;;;5072696;28;20723;-72
2021/05/02 13:26:12;;;;;;;0.40;0.20;;;10.80;99.90;;;;;;5071450;28;20474;-73
2021/05/02 13:28:38;;;;;;;0.40;0.20;;;;;;;;;;5052021;28;20771;-73
2021/05/02 13:31:05;;;;;;;0.40;0.22;;;;;;;;;;5082199;28;20362;-74
2021/05/02 13:33:31;;;;;;;0.40;0.20;;;10.40;99.90;;;;;;5089389;28;20375;-71
2021/05/02 13:35:58;;;;;;;0.40;0.20;;;;;;;;;;5089906;28;20849;-73
2021/05/02 13:38:23;;;;;;;0.40;0.20;;;9.90;99.90;;;;;;5090591;28;20385;-74
2021/05/02 13:40:50;;;;;;;0.40;0.20;;;;;;;;;;5071763;28;20381;-72
2021/05/02 13:43:16;;;;;;;0.40;0.20;;;;;;;;;;5090274;28;20370;-72
2021/05/02 13:45:44;;;;;;;0.40;0.20;;;;;;;;;;5089806;28;20396;-72
2021/05/02 13:48:12;;;;;;;0.40;0.20;;;;;;;;;;5090225;28;20370;-72
2021/05/02 13:50:38;;;;;;;0.40;0.20;;;9.80;99.90;;;;;;5090838;28;20394;-74
2021/05/02 13:53:04;;;;;;;0.40;0.20;;;;;;;;;;5089667;28;20366;-73
2021/05/02 13:55:30;;;;;;;0.40;0.20;;;;;;;;;;5090069;28;20589;-73
2021/05/02 13:57:56;;;;;;;0.40;0.20;;;;;;;;;;5089383;28;20461;-73
2021/05/02 14:00:23;;;;;;;0.40;0.20;;;9.60;99.90;;;;;;5090236;28;20870;-73
2021/05/02 14:02:50;;;;;;;0.40;0.20;;;;;;;;;;5089890;28;20374;-72
2021/05/02 14:05:18;;;;;;;0.40;0.20;;;;;;;;;;5090672;28;20381;-73
2021/05/02 14:07:44;;;;;;;0.40;0.30;;;;;;;;;;5090122;28;20439;-75